createdAt,value
2023-04-16T15:03:34.723Z,99052.50
2023-04-16T15:05:36.756Z,99052.94
2023-04-16T15:07:38.529Z,99051.03
2023-04-16T15:11:19.020Z,99048.00
2023-04-16T15:13:20.729Z,99057.19
2023-04-16T15:15:22.623Z,99053.16
2023-04-16T15:17:24.391Z,99059.66
2023-04-16T15:19:26.125Z,99056.44
2023-04-16T15:21:28.056Z,99060.06
2023-04-16T15:23:29.802Z,99062.94
2023-04-16T15:30:52.406Z,99067.09
2023-04-16T15:32:55.055Z,99063.88
2023-04-16T15:34:56.879Z,99065.53
2023-04-16T15:36:58.577Z,99058.94
2023-04-16T15:39:00.493Z,99060.16
2023-04-16T15:41:02.304Z,99072.31
2023-04-16T15:43:05.808Z,99066.00
2023-04-16T15:45:07.725Z,99068.16
2023-04-16T15:47:09.576Z,99071.97
2023-04-16T15:49:11.532Z,99073.53
2023-04-16T15:55:03.598Z,99071.16
2023-04-16T16:00:13.921Z,99066.41
2023-04-16T16:05:16.841Z,99081.56
2023-04-16T16:10:20.239Z,99078.19
2023-04-16T16:15:22.477Z,99082.00
2023-04-16T16:20:25.346Z,99085.19
2023-04-16T16:25:27.328Z,99080.31
2023-04-16T16:30:29.261Z,99081.44
2023-04-16T16:35:31.453Z,99084.22
2023-04-16T16:40:33.281Z,99090.84
2023-04-16T16:45:35.046Z,99081.66
2023-04-16T16:50:36.772Z,99092.56
2023-04-16T16:55:38.535Z,99096.84
2023-04-16T17:00:40.559Z,99094.88
2023-04-16T17:05:42.384Z,99099.16
2023-04-16T17:10:44.087Z,99099.94
2023-04-16T17:15:46.658Z,99099.53
2023-04-16T17:20:48.523Z,99102.13
2023-04-16T17:25:50.993Z,99104.78
2023-04-16T17:30:54.163Z,99099.13
2023-04-16T17:35:55.904Z,99106.97
2023-04-16T17:40:57.955Z,99109.25
2023-04-16T17:45:59.774Z,99104.44
2023-04-16T17:51:11.773Z,99114.16
2023-04-16T17:56:14.317Z,99121.69
2023-04-16T18:01:16.156Z,99131.69
2023-04-16T18:06:17.995Z,99125.13
2023-04-16T18:11:19.738Z,99128.25
2023-04-16T18:16:22.869Z,99139.84
2023-04-16T18:21:24.907Z,99137.97
2023-04-16T18:26:29.652Z,99144.38
2023-04-16T18:31:32.011Z,99136.16
2023-04-16T18:36:36.578Z,99145.09
2023-04-16T18:41:40.127Z,99153.94
2023-04-16T18:46:46.137Z,99146.56
2023-04-16T18:51:48.367Z,99156.00
2023-04-16T18:56:57.765Z,99165.66
2023-04-16T19:02:00.946Z,99169.28
2023-04-16T19:07:02.746Z,99177.28
2023-04-16T19:12:04.691Z,99175.66
2023-04-16T19:17:06.483Z,99175.38
2023-04-16T19:22:08.380Z,99172.09
2023-04-16T19:27:10.445Z,99177.91
2023-04-16T19:32:14.045Z,99173.78
2023-04-16T19:37:16.117Z,99170.78
2023-04-16T19:42:17.900Z,99173.56
2023-04-16T19:47:20.112Z,99169.22
2023-04-16T19:52:21.856Z,99171.75
2023-04-16T19:57:23.727Z,99168.22
2023-04-16T20:02:25.603Z,99167.47
2023-04-16T20:10:54.171Z,99166.44
2023-04-16T20:16:47.781Z,99170.00
2023-04-16T20:21:49.623Z,99169.47
2023-04-16T20:26:51.554Z,99173.06
2023-04-16T20:31:53.532Z,99175.25
2023-04-16T20:36:55.328Z,99168.94
2023-04-16T20:41:57.190Z,99163.13
2023-04-16T20:47:02.291Z,99166.44
2023-04-16T20:52:05.175Z,99160.69
2023-04-16T20:57:07.696Z,99162.09
2023-04-16T21:02:09.690Z,99157.97
2023-04-16T21:07:11.793Z,99166.22
2023-04-16T21:12:13.661Z,99160.50
2023-04-16T21:17:15.429Z,99159.66
2023-04-16T21:22:17.412Z,99157.75
2023-04-16T21:27:19.367Z,99151.13
2023-04-16T21:32:21.270Z,99151.97
2023-04-16T21:37:23.138Z,99156.91
2023-04-16T21:42:25.004Z,99158.03
2023-04-16T21:47:26.825Z,99154.75
2023-04-16T21:52:28.849Z,99156.44
2023-04-16T21:57:30.684Z,99143.28
2023-04-16T22:02:34.116Z,99133.97
2023-04-16T22:07:36.874Z,99141.13
2023-04-16T22:12:39.937Z,99138.72
2023-04-16T22:17:43.136Z,99138.75
2023-04-16T22:22:44.974Z,99139.13
2023-04-16T22:27:46.972Z,99131.78
2023-04-16T22:32:48.892Z,99134.88
2023-04-16T22:37:50.832Z,99133.22
2023-04-16T22:42:52.788Z,99122.59
2023-04-16T22:47:54.782Z,99124.03
2023-04-16T22:52:56.608Z,99115.50
2023-04-16T22:57:58.412Z,99116.13
2023-04-16T23:03:01.945Z,99112.00
2023-04-16T23:08:04.053Z,99106.56
2023-04-16T23:13:05.880Z,99104.69
2023-04-16T23:18:07.734Z,99109.94
2023-04-16T23:23:09.528Z,99109.09
2023-04-16T23:28:11.371Z,99105.22
2023-04-16T23:33:13.151Z,99103.31
2023-04-16T23:38:14.924Z,99095.00
2023-04-16T23:43:16.878Z,99079.03
2023-04-16T23:48:18.679Z,99079.53
2023-04-16T23:53:20.446Z,99077.56
2023-04-16T23:58:22.247Z,99082.50
